CheckWX is a tool to help pilots better visualize weather data.  It is not intended as a substitute for an official pre-flight weather briefing.

14:54:41 UTC

CYXT TAF
Terrace Airport
Terrace, Canada
TAF CYXT 161240Z 1613/1701 18006KT P6SM BKN040 TEMPO 1613/1616 BKN020 FM162000 17012KT P6SM OVC060 TEMPO 1620/1701 P6SM -SHRA OVC030 RMK NXT FCST BY 161900Z

Jul-16@
13:00 UTC

Jul-16 @ 13:00 UTC

Jul-16@
20:00 UTC

Jul-16 @ 20:00 UTC

TAF CYXT 161240Z 1613/1701 18006KT P6SM BKN040
Wind
  • 180° at 6 KTS
Cloud Levels
  • Broken at 4,000' AGL

Jul-16@
13:00 UTC

Jul-16 @ 13:00 UTC

Jul-16@
16:00 UTC

Jul-16 @ 16:00 UTC

TEMPO 1613/1616 BKN020

Temporary

Temporary Changes expected for less than half the time period

Cloud Levels
  • Broken at 2,000' AGL

Jul-16@
20:00 UTC

Jul-16 @ 20:00 UTC

Jul-17@
01:00 UTC

Jul-17 @ 01:00 UTC

FM162000 17012KT P6SM OVC060

From

From Standard forecast or significant change

Wind
  • 170° at 12 KTS
Cloud Levels
  • Overcast at 6,000' AGL

Jul-16@
20:00 UTC

Jul-16 @ 20:00 UTC

Jul-17@
01:00 UTC

Jul-17 @ 01:00 UTC

TEMPO 1620/1701 P6SM -SHRA OVC030 RMK NXT FCST BY 161900Z

Temporary

Temporary Changes expected for less than half the time period

Conditions
Light Rain
Cloud Levels
  • Overcast at 3,000' AGL